createdAt,value
2017-11-08T00:00:01.347Z,7.87
2017-11-08T00:00:36.052Z,7.65
2017-11-08T00:01:10.766Z,7.45
2017-11-08T00:01:45.535Z,8.43
2017-11-08T00:02:20.284Z,8.50
2017-11-08T00:02:55.021Z,8.10
2017-11-08T00:03:29.748Z,7.53
2017-11-08T00:04:04.457Z,9.15
2017-11-08T00:04:39.258Z,9.43
2017-11-08T00:05:16.070Z,7.18
2017-11-08T00:05:50.790Z,8.98
2017-11-08T00:06:25.551Z,8.90
2017-11-08T00:07:00.713Z,9.30
2017-11-08T00:07:35.431Z,8.13
2017-11-08T00:08:10.154Z,8.85
2017-11-08T00:08:44.876Z,9.65
2017-11-08T00:09:19.603Z,8.90
2017-11-08T00:09:54.366Z,9.30
2017-11-08T00:10:29.268Z,10.07
2017-11-08T00:11:04.027Z,8.68
2017-11-08T00:11:38.751Z,8.68
2017-11-08T00:12:13.546Z,8.52
2017-11-08T00:12:48.508Z,8.73
2017-11-08T00:13:23.236Z,10.20
2017-11-08T00:13:57.958Z,9.40
2017-11-08T00:14:32.689Z,9.70
2017-11-08T00:15:07.678Z,9.00
2017-11-08T00:16:43.836Z,8.65
2017-11-08T00:17:18.890Z,10.13
2017-11-08T00:17:54.502Z,9.32
2017-11-08T00:18:29.216Z,9.80
2017-11-08T00:19:04.134Z,9.73
2017-11-08T00:19:38.856Z,10.55
2017-11-08T00:20:13.611Z,10.07
2017-11-08T00:20:48.313Z,9.07
2017-11-08T00:21:37.737Z,10.05
2017-11-08T00:22:14.457Z,9.50
2017-11-08T00:22:49.188Z,9.50
2017-11-08T00:23:26.579Z,9.40
2017-11-08T00:24:01.297Z,9.50
2017-11-08T00:24:36.012Z,9.85
2017-11-08T00:25:10.831Z,10.35
2017-11-08T00:25:45.571Z,10.05
2017-11-08T00:26:20.292Z,9.85
2017-11-08T00:26:55.007Z,9.10
2017-11-08T00:27:29.723Z,10.02
2017-11-08T00:28:04.728Z,9.63
2017-11-08T00:28:39.267Z,10.82
2017-11-08T00:29:13.816Z,10.10
2017-11-08T00:29:48.526Z,10.00
2017-11-08T00:30:23.239Z,10.38
2017-11-08T00:30:57.951Z,9.82
2017-11-08T00:31:32.660Z,10.13
2017-11-08T00:32:07.401Z,9.98
2017-11-08T00:32:42.516Z,9.65
2017-11-08T00:33:17.575Z,9.98
2017-11-08T00:33:52.336Z,10.45
2017-11-08T00:34:27.056Z,10.55
2017-11-08T00:35:01.773Z,9.55
2017-11-08T00:35:36.352Z,10.80
2017-11-08T00:36:11.088Z,10.20
2017-11-08T00:36:45.822Z,10.45
2017-11-08T00:37:20.604Z,11.15
2017-11-08T00:37:55.386Z,11.32
2017-11-08T00:38:30.151Z,10.35
2017-11-08T00:39:04.514Z,11.48
2017-11-08T00:39:39.253Z,10.80
2017-11-08T00:40:14.004Z,11.12
2017-11-08T00:40:48.724Z,10.85
2017-11-08T00:41:23.448Z,9.70
2017-11-08T00:41:58.180Z,10.48
2017-11-08T00:42:32.896Z,11.93
2017-11-08T00:43:07.640Z,11.57
2017-11-08T00:43:42.390Z,12.02
2017-11-08T00:44:17.103Z,11.68
2017-11-08T00:44:51.823Z,12.50
2017-11-08T00:45:26.546Z,10.75
2017-11-08T00:46:01.273Z,10.85
2017-11-08T00:46:35.991Z,10.52
2017-11-08T00:47:10.706Z,11.52
2017-11-08T00:47:45.453Z,12.32
2017-11-08T00:48:20.177Z,11.18
2017-11-08T00:48:55.249Z,11.75
2017-11-08T00:49:29.967Z,10.60
2017-11-08T00:50:04.367Z,11.10
2017-11-08T00:50:39.085Z,12.93
2017-11-08T00:51:13.456Z,10.98
2017-11-08T00:51:48.167Z,12.37
2017-11-08T00:52:22.899Z,12.25
2017-11-08T00:52:57.617Z,12.00
2017-11-08T00:53:32.361Z,11.85
2017-11-08T00:54:07.097Z,12.80
2017-11-08T00:54:41.849Z,11.55
2017-11-08T00:55:16.592Z,11.48
2017-11-08T00:55:51.321Z,12.00
2017-11-08T00:56:26.052Z,11.23
2017-11-08T00:57:00.797Z,12.07
2017-11-08T00:57:37.169Z,12.35
2017-11-08T00:58:14.875Z,13.45
2017-11-08T00:58:49.590Z,12.63
2017-11-08T00:59:24.333Z,12.30
2017-11-08T00:59:59.832Z,13.02
2017-11-08T01:00:34.601Z,12.65
2017-11-08T01:01:09.333Z,13.23
2017-11-08T01:01:44.050Z,13.40
2017-11-08T01:02:18.794Z,13.88
2017-11-08T01:02:53.503Z,14.25
2017-11-08T01:03:28.216Z,13.70
2017-11-08T01:04:02.959Z,13.45
2017-11-08T01:04:37.673Z,14.15
2017-11-08T01:05:12.425Z,14.52
2017-11-08T01:05:47.150Z,14.00
2017-11-08T01:06:21.864Z,13.80
2017-11-08T01:06:56.602Z,14.10
2017-11-08T01:07:31.316Z,14.75
2017-11-08T01:08:06.032Z,14.63
2017-11-08T01:08:40.747Z,15.82
2017-11-08T01:09:15.469Z,15.35
2017-11-08T01:09:50.191Z,14.50
2017-11-08T01:10:24.935Z,14.90
2017-11-08T01:10:59.652Z,15.23
2017-11-08T01:11:34.372Z,16.12
2017-11-08T01:12:09.153Z,15.98
2017-11-08T01:12:43.870Z,16.98
2017-11-08T01:13:18.607Z,14.35
2017-11-08T01:13:53.334Z,14.98
2017-11-08T01:14:28.039Z,15.40
2017-11-08T01:15:02.760Z,16.00
2017-11-08T01:15:37.825Z,16.62
2017-11-08T01:16:12.361Z,16.35
2017-11-08T01:16:47.094Z,18.05
2017-11-08T01:17:21.823Z,17.00
2017-11-08T01:17:56.550Z,16.85
2017-11-08T01:18:31.087Z,16.25
2017-11-08T01:19:05.800Z,16.27
2017-11-08T01:19:40.529Z,18.50
2017-11-08T01:20:15.275Z,16.50
2017-11-08T01:20:50.357Z,16.98
2017-11-08T01:21:25.084Z,16.98
2017-11-08T01:21:59.818Z,17.05
2017-11-08T01:22:34.524Z,16.77
2017-11-08T01:23:09.230Z,16.55
2017-11-08T01:23:43.928Z,16.70
2017-11-08T01:24:18.635Z,15.90
2017-11-08T01:24:53.951Z,16.08
2017-11-08T01:25:28.661Z,16.48
2017-11-08T01:26:03.411Z,18.75
2017-11-08T01:26:38.119Z,17.60
2017-11-08T01:27:12.827Z,16.23
2017-11-08T01:27:47.609Z,16.90
2017-11-08T01:28:22.318Z,16.62
2017-11-08T01:28:57.036Z,17.45
2017-11-08T01:29:31.797Z,17.17
2017-11-08T01:30:06.509Z,17.83
2017-11-08T01:30:41.217Z,15.95
2017-11-08T01:31:15.936Z,17.27
2017-11-08T01:31:50.649Z,16.48
2017-11-08T01:32:25.389Z,17.50
2017-11-08T01:33:00.103Z,17.90
2017-11-08T01:33:34.851Z,19.12
2017-11-08T01:34:09.572Z,17.85
2017-11-08T01:34:44.615Z,16.55
2017-11-08T01:35:22.183Z,15.48
2017-11-08T01:35:56.916Z,16.52
2017-11-08T01:36:31.628Z,17.70
2017-11-08T01:37:11.887Z,18.08
2017-11-08T01:37:46.587Z,16.25
2017-11-08T01:38:21.316Z,17.20
2017-11-08T01:38:56.033Z,16.50
2017-11-08T01:39:30.779Z,16.42
2017-11-08T01:40:09.401Z,17.92
2017-11-08T01:40:43.949Z,17.42
2017-11-08T01:41:24.563Z,17.35
2017-11-08T01:42:04.873Z,19.05
2017-11-08T01:42:39.288Z,18.05
2017-11-08T01:43:14.003Z,18.10
2017-11-08T01:43:48.741Z,17.58
2017-11-08T01:44:26.014Z,17.90
2017-11-08T01:45:00.724Z,17.75
2017-11-08T01:45:35.464Z,18.10
2017-11-08T01:46:10.190Z,19.25
2017-11-08T01:46:45.213Z,18.85
2017-11-08T01:47:19.932Z,19.00
2017-11-08T01:47:59.626Z,19.45
2017-11-08T01:48:34.365Z,15.88
2017-11-08T01:49:08.746Z,19.33
2017-11-08T01:49:43.446Z,19.35
2017-11-08T01:50:18.164Z,18.75
2017-11-08T01:50:52.881Z,18.27
2017-11-08T01:51:27.599Z,18.77
2017-11-08T01:52:07.406Z,19.75
2017-11-08T01:52:42.123Z,18.40
2017-11-08T01:53:16.900Z,19.20
2017-11-08T01:53:51.639Z,18.98
2017-11-08T01:54:26.356Z,19.62
2017-11-08T01:55:01.114Z,17.40
2017-11-08T01:55:38.409Z,18.45
2017-11-08T01:56:12.861Z,19.10
2017-11-08T01:56:47.286Z,19.17
2017-11-08T01:57:22.035Z,20.12
2017-11-08T01:57:56.415Z,19.50
2017-11-08T01:58:30.789Z,20.40
2017-11-08T01:59:05.155Z,19.23
2017-11-08T01:59:39.540Z,19.08
2017-11-08T02:00:14.281Z,18.85
2017-11-08T02:00:48.649Z,19.05
2017-11-08T02:01:23.406Z,19.05
2017-11-08T02:01:58.142Z,17.62
2017-11-08T02:02:32.885Z,20.25
2017-11-08T02:03:07.314Z,20.48
2017-11-08T02:03:42.031Z,20.62
2017-11-08T02:04:16.771Z,19.08
2017-11-08T02:04:51.507Z,20.15
2017-11-08T02:05:26.237Z,19.50
2017-11-08T02:06:00.964Z,19.35
2017-11-08T02:06:35.713Z,19.02
2017-11-08T02:07:10.477Z,19.55
2017-11-08T02:07:45.219Z,19.05
2017-11-08T02:08:19.971Z,18.50
2017-11-08T02:08:54.671Z,19.52
2017-11-08T02:09:29.411Z,19.83
2017-11-08T02:10:03.599Z,18.87
2017-11-08T02:10:38.319Z,18.70
2017-11-08T02:11:13.039Z,19.73
2017-11-08T02:11:47.774Z,19.10
2017-11-08T02:12:21.992Z,17.83
2017-11-08T02:12:56.729Z,20.45
2017-11-08T02:13:31.468Z,18.85
2017-11-08T02:14:06.216Z,18.80
2017-11-08T02:14:40.924Z,20.27
2017-11-08T02:15:15.626Z,20.75
2017-11-08T02:15:51.258Z,19.65
2017-11-08T02:16:25.976Z,19.77
2017-11-08T02:17:00.849Z,21.02
2017-11-08T02:17:37.419Z,19.75
2017-11-08T02:18:17.865Z,20.62
2017-11-08T02:18:54.422Z,20.52
2017-11-08T02:19:28.835Z,20.98
2017-11-08T02:20:04.803Z,22.17
2017-11-08T02:20:39.180Z,20.48
2017-11-08T02:21:13.549Z,20.90
2017-11-08T02:21:48.265Z,20.02
2017-11-08T02:22:22.650Z,21.37
2017-11-08T02:22:57.014Z,21.17
2017-11-08T02:23:32.171Z,21.90
2017-11-08T02:24:06.578Z,20.75
2017-11-08T02:24:40.955Z,21.42
2017-11-08T02:25:15.353Z,21.08
2017-11-08T02:25:49.737Z,21.77
2017-11-08T02:26:29.780Z,21.48
2017-11-08T02:27:05.834Z,22.25
2017-11-08T02:27:40.200Z,21.02
2017-11-08T02:28:17.399Z,21.87
2017-11-08T02:28:51.793Z,21.30
2017-11-08T02:29:28.580Z,22.48
2017-11-08T02:30:03.024Z,21.75
2017-11-08T02:30:37.910Z,20.37
2017-11-08T02:31:13.236Z,20.30
2017-11-08T02:31:47.614Z,21.80
2017-11-08T02:32:21.987Z,22.75
2017-11-08T02:32:56.403Z,22.60
2017-11-08T02:33:32.492Z,22.25
2017-11-08T02:34:06.890Z,22.60
2017-11-08T02:34:41.316Z,23.05
2017-11-08T02:35:15.679Z,22.02
2017-11-08T02:35:50.441Z,22.67
2017-11-08T02:36:24.854Z,21.70
2017-11-08T02:36:59.556Z,23.12
2017-11-08T02:37:37.148Z,22.85
2017-11-08T02:38:14.089Z,22.95
2017-11-08T02:38:48.820Z,22.60
2017-11-08T02:39:23.547Z,20.35
2017-11-08T02:39:58.262Z,21.92
2017-11-08T02:40:32.969Z,22.27
2017-11-08T02:41:07.740Z,21.90
2017-11-08T02:41:42.826Z,22.75
2017-11-08T02:42:17.561Z,22.13
2017-11-08T02:42:52.288Z,21.85
2017-11-08T02:43:27.041Z,22.27
2017-11-08T02:44:01.778Z,22.25
2017-11-08T02:44:36.512Z,21.17
2017-11-08T02:45:10.887Z,22.30
2017-11-08T02:45:46.417Z,21.77
2017-11-08T02:46:25.881Z,22.73
2017-11-08T02:47:00.631Z,20.15
2017-11-08T02:47:35.332Z,21.10
2017-11-08T02:48:09.691Z,22.55
2017-11-08T02:48:44.408Z,21.02
2017-11-08T02:49:19.118Z,23.35
2017-11-08T02:49:53.820Z,22.92
2017-11-08T02:50:28.596Z,23.55
2017-11-08T02:51:03.441Z,24.30
2017-11-08T02:51:37.833Z,20.35
2017-11-08T02:52:12.596Z,22.98
2017-11-08T02:52:47.325Z,21.77
2017-11-08T02:53:21.987Z,21.45
2017-11-08T02:53:56.701Z,21.98
2017-11-08T02:54:31.438Z,22.42
2017-11-08T02:55:11.859Z,23.08
2017-11-08T02:55:46.952Z,22.13
2017-11-08T02:56:21.686Z,22.25
2017-11-08T02:56:56.424Z,23.30
2017-11-08T02:57:31.192Z,22.90
2017-11-08T02:58:05.935Z,23.25
2017-11-08T02:58:41.592Z,21.20
2017-11-08T02:59:16.321Z,21.77
2017-11-08T02:59:51.060Z,23.98
2017-11-08T03:00:25.790Z,21.12
2017-11-08T03:01:00.539Z,23.83
2017-11-08T03:01:35.252Z,22.00
2017-11-08T03:02:11.957Z,22.15
2017-11-08T03:02:50.646Z,22.98
2017-11-08T03:03:25.352Z,23.38
2017-11-08T03:04:02.890Z,24.10
2017-11-08T03:04:43.260Z,22.70
2017-11-08T03:05:17.792Z,22.50
2017-11-08T03:05:52.506Z,22.67
2017-11-08T03:06:27.214Z,23.50
2017-11-08T03:07:01.939Z,23.38
2017-11-08T03:07:36.660Z,21.95
2017-11-08T03:08:11.555Z,23.48
2017-11-08T03:08:46.265Z,23.42
2017-11-08T03:09:20.981Z,23.70
2017-11-08T03:09:55.715Z,24.40
2017-11-08T03:10:30.415Z,22.45
2017-11-08T03:11:05.743Z,23.12
2017-11-08T03:11:40.478Z,23.30
2017-11-08T03:12:15.217Z,25.30
2017-11-08T03:12:49.942Z,23.40
2017-11-08T03:13:25.021Z,23.55
2017-11-08T03:13:59.729Z,24.37
2017-11-08T03:14:34.447Z,23.90
2017-11-08T03:15:09.776Z,24.33
2017-11-08T03:15:44.507Z,23.95
2017-11-08T03:16:19.250Z,25.42
2017-11-08T03:16:53.982Z,24.58
2017-11-08T03:17:28.818Z,23.55
2017-11-08T03:18:03.557Z,23.80
2017-11-08T03:18:38.303Z,23.73
2017-11-08T03:19:13.023Z,26.30
2017-11-08T03:19:47.739Z,26.02
2017-11-08T03:20:22.546Z,24.90
2017-11-08T03:20:57.279Z,27.35
2017-11-08T03:21:32.018Z,24.80
2017-11-08T03:22:06.736Z,27.00
2017-11-08T03:22:41.444Z,26.45
2017-11-08T03:23:16.217Z,25.60
2017-11-08T03:23:51.223Z,26.95
2017-11-08T03:24:25.944Z,25.75
2017-11-08T03:25:00.811Z,27.08
2017-11-08T03:25:35.526Z,25.20
2017-11-08T03:26:10.238Z,27.10
2017-11-08T03:26:44.972Z,27.02
2017-11-08T03:27:19.691Z,25.67
2017-11-08T03:27:54.423Z,27.67
2017-11-08T03:28:29.126Z,28.05
2017-11-08T03:29:03.904Z,26.83
2017-11-08T03:29:38.341Z,27.87
2017-11-08T03:30:13.054Z,26.42
2017-11-08T03:30:47.768Z,27.27
2017-11-08T03:31:22.499Z,25.23
2017-11-08T03:31:57.211Z,27.80
2017-11-08T03:32:32.699Z,27.95
2017-11-08T03:33:07.416Z,28.00
2017-11-08T03:33:42.135Z,27.30
2017-11-08T03:34:17.164Z,28.30
2017-11-08T03:34:51.871Z,27.70
2017-11-08T03:35:26.244Z,26.80
2017-11-08T03:36:00.610Z,26.25
2017-11-08T03:36:34.992Z,27.50
2017-11-08T03:37:09.367Z,27.80
2017-11-08T03:37:43.727Z,29.05
2017-11-08T03:38:18.508Z,28.70
2017-11-08T03:38:53.224Z,29.52
2017-11-08T03:39:28.244Z,29.27
2017-11-08T03:40:02.944Z,26.98
2017-11-08T03:40:37.709Z,29.12
2017-11-08T03:41:12.424Z,29.70
2017-11-08T03:41:47.137Z,28.08
2017-11-08T03:42:21.940Z,28.83
2017-11-08T03:42:56.683Z,28.12
2017-11-08T03:43:31.409Z,28.50
2017-11-08T03:44:06.137Z,28.10
2017-11-08T03:44:40.887Z,26.62
2017-11-08T03:45:15.597Z,28.50
2017-11-08T03:45:50.309Z,27.55
2017-11-08T03:46:25.036Z,28.60
2017-11-08T03:46:59.819Z,29.40
2017-11-08T03:47:34.573Z,29.35
2017-11-08T03:48:09.296Z,27.67
2017-11-08T03:48:44.008Z,30.60
2017-11-08T03:49:18.744Z,30.25
2017-11-08T03:49:53.309Z,29.58
2017-11-08T03:50:28.035Z,29.75
2017-11-08T03:51:02.845Z,29.00
2017-11-08T03:51:37.211Z,28.98
2017-11-08T03:52:11.948Z,29.60
2017-11-08T03:52:46.672Z,29.90
2017-11-08T03:53:21.379Z,31.60
2017-11-08T03:53:59.929Z,29.02
2017-11-08T03:54:34.660Z,29.73
2017-11-08T03:55:09.422Z,31.35
2017-11-08T03:55:44.135Z,30.10
2017-11-08T03:56:18.854Z,29.83
2017-11-08T03:56:53.583Z,30.70
2017-11-08T03:57:28.307Z,31.02
2017-11-08T03:58:03.087Z,30.02
2017-11-08T03:58:37.871Z,31.08
2017-11-08T03:59:12.571Z,30.67
2017-11-08T03:59:47.288Z,31.52
2017-11-08T04:00:22.041Z,30.48
2017-11-08T04:00:56.756Z,29.10
2017-11-08T04:01:31.621Z,30.73
2017-11-08T04:02:06.346Z,31.67
2017-11-08T04:02:41.061Z,30.25
2017-11-08T04:03:15.624Z,30.23
2017-11-08T04:03:50.337Z,28.70
2017-11-08T04:04:26.582Z,29.40
2017-11-08T04:05:02.174Z,30.67
2017-11-08T04:05:37.259Z,30.27
2017-11-08T04:06:11.966Z,31.83
2017-11-08T04:06:47.485Z,31.40
2017-11-08T04:07:22.278Z,29.95
2017-11-08T04:07:57.040Z,31.62
2017-11-08T04:08:32.078Z,30.17
2017-11-08T04:09:06.790Z,30.52
2017-11-08T04:09:41.493Z,31.12
2017-11-08T04:10:16.211Z,27.90
2017-11-08T04:10:51.017Z,28.92
2017-11-08T04:11:25.733Z,31.48
2017-11-08T04:12:00.467Z,30.95
2017-11-08T04:12:35.182Z,31.73
2017-11-08T04:13:09.735Z,30.20
2017-11-08T04:13:44.452Z,29.92
2017-11-08T04:14:19.177Z,29.15
2017-11-08T04:14:54.144Z,30.50
2017-11-08T04:15:28.855Z,30.42
2017-11-08T04:16:03.918Z,28.35
2017-11-08T04:16:38.639Z,29.02
2017-11-08T04:17:13.378Z,30.23
2017-11-08T04:17:47.968Z,31.00
2017-11-08T04:18:22.530Z,30.00
2017-11-08T04:18:57.248Z,29.55
2017-11-08T04:19:32.101Z,30.48
2017-11-08T04:20:06.846Z,31.20
2017-11-08T04:20:41.557Z,30.08
2017-11-08T04:21:16.248Z,31.45
2017-11-08T04:21:50.632Z,30.60
2017-11-08T04:22:25.056Z,30.17
2017-11-08T04:22:59.836Z,30.73
2017-11-08T04:23:34.551Z,30.98
2017-11-08T04:24:09.272Z,28.62
2017-11-08T04:24:44.006Z,30.67
2017-11-08T04:25:18.725Z,30.92
2017-11-08T04:25:53.097Z,30.00
2017-11-08T04:26:28.083Z,31.98
2017-11-08T04:27:02.796Z,28.40
2017-11-08T04:27:37.542Z,28.55
2017-11-08T04:28:12.271Z,29.60
2017-11-08T04:28:47.007Z,28.55
2017-11-08T04:29:21.725Z,31.17
2017-11-08T04:29:56.439Z,29.85
2017-11-08T04:30:31.156Z,29.33
2017-11-08T04:31:05.869Z,30.60
2017-11-08T04:31:40.607Z,30.05
2017-11-08T04:32:15.525Z,31.40
2017-11-08T04:32:50.253Z,30.60
2017-11-08T04:33:25.090Z,31.55
2017-11-08T04:33:59.814Z,30.70
2017-11-08T04:34:34.531Z,30.05
2017-11-08T04:35:09.250Z,29.80
2017-11-08T04:35:43.970Z,32.03
2017-11-08T04:36:18.800Z,30.37
2017-11-08T04:36:53.524Z,32.03
2017-11-08T04:37:28.230Z,31.35
2017-11-08T04:38:02.973Z,30.83
2017-11-08T04:38:37.712Z,32.08
2017-11-08T04:39:12.409Z,29.70
2017-11-08T04:39:47.119Z,30.40
2017-11-08T04:40:21.830Z,31.65
2017-11-08T04:40:56.544Z,32.20
2017-11-08T04:41:31.272Z,31.85
2017-11-08T04:42:06.043Z,31.12
2017-11-08T04:42:40.770Z,32.58
2017-11-08T04:43:15.488Z,31.87
2017-11-08T04:43:50.198Z,31.98
2017-11-08T04:44:25.180Z,32.53
2017-11-08T04:44:59.901Z,32.83
2017-11-08T04:45:34.324Z,32.47
2017-11-08T04:46:08.763Z,31.35
2017-11-08T04:46:43.474Z,35.03
2017-11-08T04:47:18.215Z,33.55
2017-11-08T04:47:52.948Z,33.85
2017-11-08T04:48:27.662Z,32.05
2017-11-08T04:49:02.379Z,35.40
2017-11-08T04:49:37.098Z,35.65
2017-11-08T04:50:11.835Z,36.53
2017-11-08T04:50:46.543Z,36.60
2017-11-08T04:51:21.265Z,33.95
2017-11-08T04:51:55.973Z,36.70
2017-11-08T04:52:31.033Z,37.13
2017-11-08T04:53:05.736Z,36.88
2017-11-08T04:53:40.488Z,35.67
2017-11-08T04:54:15.204Z,37.33
2017-11-08T04:54:49.739Z,35.92
2017-11-08T04:55:24.266Z,35.05
2017-11-08T04:55:59.297Z,36.65
2017-11-08T04:56:34.018Z,37.42
2017-11-08T04:57:08.544Z,36.50
2017-11-08T04:57:43.140Z,38.38
2017-11-08T04:58:17.864Z,37.42
2017-11-08T04:58:52.575Z,36.30
2017-11-08T04:59:27.280Z,36.60
2017-11-08T05:00:01.993Z,37.58
2017-11-08T05:00:36.528Z,39.45
2017-11-08T05:01:11.259Z,38.67
2017-11-08T05:01:45.963Z,38.10
2017-11-08T05:02:20.679Z,36.15
2017-11-08T05:02:55.432Z,39.63
2017-11-08T05:03:29.947Z,39.08
2017-11-08T05:04:04.656Z,36.42
2017-11-08T05:04:39.371Z,38.72
2017-11-08T05:05:14.081Z,38.65
2017-11-08T05:05:48.795Z,38.40
2017-11-08T05:06:23.614Z,35.53
2017-11-08T05:06:58.330Z,36.13
2017-11-08T05:07:33.047Z,40.40
2017-11-08T05:08:07.796Z,40.88
2017-11-08T05:08:42.503Z,36.97
2017-11-08T05:09:17.215Z,38.72
2017-11-08T05:09:52.440Z,40.53
2017-11-08T05:10:27.155Z,40.55
2017-11-08T05:11:02.381Z,39.72
2017-11-08T05:11:37.091Z,40.90
2017-11-08T05:12:11.798Z,38.92
2017-11-08T05:12:46.518Z,37.80
2017-11-08T05:13:21.634Z,39.58
2017-11-08T05:13:56.342Z,37.33
2017-11-08T05:15:13.305Z,40.15
2017-11-08T05:15:48.024Z,37.72
2017-11-08T05:16:22.795Z,38.33
2017-11-08T05:16:57.507Z,38.30
2017-11-08T05:17:32.233Z,38.53
2017-11-08T05:18:06.961Z,36.60
2017-11-08T05:18:41.739Z,36.60
2017-11-08T05:19:16.465Z,37.85
2017-11-08T05:19:51.181Z,38.85
2017-11-08T05:20:25.892Z,41.13
2017-11-08T05:21:00.603Z,42.78
2017-11-08T05:21:35.326Z,41.95
2017-11-08T05:22:10.039Z,41.22
2017-11-08T05:22:44.751Z,41.10
2017-11-08T05:23:19.465Z,41.03
2017-11-08T05:23:54.206Z,42.22
2017-11-08T05:24:28.920Z,40.03
2017-11-08T05:25:03.697Z,39.42
2017-11-08T05:25:38.416Z,43.08
2017-11-08T05:26:13.120Z,41.35
2017-11-08T05:26:47.846Z,40.92
2017-11-08T05:27:22.542Z,42.90
2017-11-08T05:27:57.275Z,43.35
2017-11-08T05:28:32.015Z,42.53
2017-11-08T05:29:07.111Z,43.40
2017-11-08T05:29:41.823Z,43.70
2017-11-08T05:30:16.583Z,39.30
2017-11-08T05:30:51.333Z,42.45
2017-11-08T05:31:26.109Z,41.75
2017-11-08T05:32:00.828Z,42.08
2017-11-08T05:32:35.603Z,43.92
2017-11-08T05:33:10.388Z,44.28
2017-11-08T05:33:45.096Z,42.65
2017-11-08T05:34:19.851Z,42.20
2017-11-08T05:34:54.571Z,41.92
2017-11-08T05:35:29.311Z,43.67
2017-11-08T05:36:03.691Z,43.97
2017-11-08T05:36:38.419Z,42.83
2017-11-08T05:37:13.183Z,43.22
2017-11-08T05:37:47.994Z,42.78
2017-11-08T05:38:22.702Z,42.58
2017-11-08T05:38:57.440Z,43.45
2017-11-08T05:39:32.773Z,42.62
2017-11-08T05:40:07.529Z,43.30
2017-11-08T05:40:42.284Z,43.97
2017-11-08T05:41:17.012Z,42.60
2017-11-08T05:41:57.683Z,42.15
2017-11-08T05:42:32.436Z,43.28
2017-11-08T05:43:07.283Z,42.40
2017-11-08T05:43:41.979Z,44.13
2017-11-08T05:44:16.687Z,43.90
2017-11-08T05:44:51.469Z,40.58
2017-11-08T05:45:26.222Z,44.75
2017-11-08T05:46:00.984Z,44.35
2017-11-08T05:46:35.515Z,43.22
2017-11-08T05:47:10.244Z,44.08
2017-11-08T05:47:44.963Z,42.53
2017-11-08T05:48:19.373Z,43.35
2017-11-08T05:48:54.087Z,43.58
2017-11-08T05:49:28.606Z,44.17
2017-11-08T05:50:03.391Z,44.65
2017-11-08T05:50:38.119Z,45.28
2017-11-08T05:51:12.841Z,44.85
2017-11-08T05:51:47.565Z,44.10
2017-11-08T05:52:22.333Z,45.05
2017-11-08T05:52:57.053Z,45.17
2017-11-08T05:53:31.638Z,44.78
2017-11-08T05:54:06.179Z,45.55
2017-11-08T05:54:40.932Z,43.87
2017-11-08T05:55:15.986Z,44.35
2017-11-08T05:55:50.709Z,44.78
2017-11-08T05:56:25.477Z,46.63
2017-11-08T05:57:00.228Z,45.95
2017-11-08T05:57:35.012Z,46.05
2017-11-08T05:58:09.818Z,46.42
2017-11-08T05:58:44.544Z,45.42
2017-11-08T05:59:19.278Z,45.10
2017-11-08T05:59:53.996Z,44.85
2017-11-08T06:00:28.782Z,44.05
2017-11-08T06:01:03.509Z,45.50
2017-11-08T06:01:38.240Z,45.60
2017-11-08T06:02:12.955Z,46.15
2017-11-08T06:02:47.741Z,45.65
2017-11-08T06:03:22.482Z,44.85
2017-11-08T06:03:57.264Z,44.53
2017-11-08T06:04:31.983Z,46.58
2017-11-08T06:05:06.700Z,45.70
2017-11-08T06:05:41.519Z,46.03
2017-11-08T06:06:16.254Z,46.30
2017-11-08T06:06:50.984Z,44.47
2017-11-08T06:07:25.706Z,46.85
2017-11-08T06:08:00.458Z,47.55
2017-11-08T06:08:35.176Z,46.70
2017-11-08T06:09:09.892Z,45.42
2017-11-08T06:09:44.668Z,45.10
2017-11-08T06:10:19.434Z,46.17
2017-11-08T06:10:54.180Z,44.55
2017-11-08T06:11:28.908Z,44.42
2017-11-08T06:12:03.638Z,43.55
2017-11-08T06:12:38.380Z,44.45
2017-11-08T06:13:13.165Z,46.55
2017-11-08T06:13:47.907Z,44.55
2017-11-08T06:14:22.611Z,44.63
2017-11-08T06:14:57.445Z,43.38
2017-11-08T06:15:32.291Z,43.50
2017-11-08T06:16:07.036Z,42.97
2017-11-08T06:16:41.789Z,43.40
2017-11-08T06:17:16.519Z,43.45
2017-11-08T06:17:51.247Z,44.00
2017-11-08T06:18:25.964Z,43.10
2017-11-08T06:19:00.693Z,44.17
2017-11-08T06:19:35.486Z,41.95
2017-11-08T06:20:10.228Z,45.15
2017-11-08T06:20:45.039Z,41.90
2017-11-08T06:21:19.444Z,42.92
2017-11-08T06:21:54.156Z,43.78
2017-11-08T06:22:28.954Z,43.42
2017-11-08T06:23:03.791Z,41.72
2017-11-08T06:23:41.500Z,42.35
2017-11-08T06:24:16.396Z,43.42
2017-11-08T06:24:51.115Z,41.05
2017-11-08T06:25:25.831Z,41.95
2017-11-08T06:26:03.302Z,40.92
2017-11-08T06:26:38.926Z,38.88
2017-11-08T06:27:13.478Z,39.70
2017-11-08T06:27:48.390Z,41.00
2017-11-08T06:28:23.127Z,41.92
2017-11-08T06:28:57.877Z,41.45
2017-11-08T06:29:32.603Z,42.70
2017-11-08T06:30:07.334Z,42.33
2017-11-08T06:30:42.072Z,41.83
2017-11-08T06:31:16.812Z,40.50
2017-11-08T06:31:51.865Z,41.72
2017-11-08T06:32:26.633Z,41.70
2017-11-08T06:33:01.344Z,40.72
2017-11-08T06:33:36.067Z,40.45
2017-11-08T06:34:10.790Z,40.88
2017-11-08T06:34:45.508Z,39.78
2017-11-08T06:35:20.234Z,42.95
2017-11-08T06:35:54.957Z,39.63
2017-11-08T06:36:29.764Z,39.65
2017-11-08T06:37:04.504Z,40.65
2017-11-08T06:37:39.223Z,40.53
2017-11-08T06:38:13.929Z,39.72
2017-11-08T06:38:48.647Z,40.47
2017-11-08T06:39:23.373Z,38.47
2017-11-08T06:39:58.156Z,38.78
2017-11-08T06:40:32.882Z,40.50
2017-11-08T06:41:07.615Z,39.10
2017-11-08T06:41:42.401Z,39.83
2017-11-08T06:42:17.159Z,37.85
2017-11-08T06:42:51.887Z,40.65
2017-11-08T06:43:26.642Z,40.20
2017-11-08T06:44:01.350Z,39.60
2017-11-08T06:44:36.073Z,39.67
2017-11-08T06:45:10.795Z,40.00
2017-11-08T06:45:45.547Z,41.65
2017-11-08T06:46:19.932Z,41.47
2017-11-08T06:46:54.649Z,40.67
2017-11-08T06:47:29.725Z,41.00
2017-11-08T06:48:04.435Z,39.45
2017-11-08T06:48:39.168Z,40.38
2017-11-08T06:49:13.896Z,37.58
2017-11-08T06:49:48.594Z,38.47
2017-11-08T06:50:23.327Z,38.25
2017-11-08T06:50:59.862Z,38.13
2017-11-08T06:51:35.576Z,38.03
2017-11-08T06:52:10.285Z,38.67
2017-11-08T06:52:44.843Z,39.03
2017-11-08T06:53:19.556Z,37.70
2017-11-08T06:53:54.279Z,42.15
2017-11-08T06:54:29.000Z,39.08
2017-11-08T06:55:03.788Z,37.72
2017-11-08T06:55:38.521Z,38.42
2017-11-08T06:56:13.255Z,40.50
2017-11-08T06:56:47.957Z,41.47
2017-11-08T06:57:22.517Z,41.80
2017-11-08T06:57:57.279Z,39.75
2017-11-08T06:58:31.976Z,42.08
2017-11-08T06:59:06.694Z,41.85
2017-11-08T06:59:41.427Z,37.95
2017-11-08T07:00:16.143Z,40.58
2017-11-08T07:00:50.879Z,37.38
2017-11-08T07:01:25.594Z,38.97
2017-11-08T07:02:00.316Z,40.28
2017-11-08T07:02:35.039Z,37.42
2017-11-08T07:03:11.087Z,37.28
2017-11-08T07:03:45.796Z,38.08
2017-11-08T07:04:20.546Z,36.20
2017-11-08T07:04:55.267Z,38.08
2017-11-08T07:05:29.980Z,37.80
2017-11-08T07:06:04.636Z,37.17
2017-11-08T07:06:39.351Z,37.50
2017-11-08T07:07:14.828Z,36.67
2017-11-08T07:07:49.546Z,36.20
2017-11-08T07:08:24.306Z,38.35
2017-11-08T07:08:59.074Z,36.80
2017-11-08T07:09:33.796Z,36.95
2017-11-08T07:10:08.515Z,37.03
2017-11-08T07:10:43.229Z,36.75
2017-11-08T07:11:17.966Z,36.78
2017-11-08T07:11:52.676Z,39.67
2017-11-08T07:12:27.422Z,37.03
2017-11-08T07:13:02.148Z,38.13
2017-11-08T07:13:36.898Z,36.80
2017-11-08T07:14:11.627Z,39.08
2017-11-08T07:14:46.375Z,38.22
2017-11-08T07:15:21.096Z,36.72
2017-11-08T07:15:55.840Z,38.40
2017-11-08T07:16:30.566Z,37.97
2017-11-08T07:17:05.303Z,36.58
2017-11-08T07:17:40.195Z,35.65
2017-11-08T07:18:14.927Z,36.35
2017-11-08T07:18:49.990Z,38.53
2017-11-08T07:19:24.698Z,38.50
2017-11-08T07:19:59.434Z,36.60
2017-11-08T07:20:34.158Z,36.15
2017-11-08T07:21:08.888Z,37.25
2017-11-08T07:21:43.608Z,35.50
2017-11-08T07:22:18.331Z,37.70
2017-11-08T07:22:53.163Z,35.67
2017-11-08T07:23:27.907Z,36.45
2017-11-08T07:24:02.811Z,37.17
2017-11-08T07:24:37.540Z,37.17
2017-11-08T07:25:12.694Z,36.83
2017-11-08T07:25:47.469Z,36.60
2017-11-08T07:26:22.225Z,35.95
2017-11-08T07:26:56.948Z,37.30
2017-11-08T07:27:31.672Z,37.25
2017-11-08T07:28:06.397Z,36.03
2017-11-08T07:28:41.102Z,39.30
2017-11-08T07:29:15.859Z,37.35
2017-11-08T07:29:50.571Z,36.75
2017-11-08T07:30:25.284Z,34.88
2017-11-08T07:31:00.012Z,36.20
2017-11-08T07:31:34.725Z,34.45
2017-11-08T07:32:09.436Z,35.50